createdAt,value
2017-08-23T00:00:52.140Z,1014.89
2017-08-23T00:01:52.161Z,1014.95
2017-08-23T00:02:52.186Z,1014.97
2017-08-23T00:03:52.204Z,1014.95
2017-08-23T00:04:52.230Z,1014.92
2017-08-23T00:05:52.247Z,1014.96
2017-08-23T00:06:52.273Z,1014.95
2017-08-23T00:07:52.294Z,1014.92
2017-08-23T00:08:52.315Z,1014.91
2017-08-23T00:09:52.335Z,1014.9
2017-08-23T00:10:52.356Z,1014.87
2017-08-23T00:11:52.378Z,1014.88
2017-08-23T00:12:52.401Z,1014.89
2017-08-23T00:13:52.423Z,1014.88
2017-08-23T00:14:52.451Z,1014.89
2017-08-23T00:15:52.467Z,1014.85
2017-08-23T00:16:52.489Z,1014.83
2017-08-23T00:17:52.510Z,1014.84
2017-08-23T00:18:52.532Z,1014.81
2017-08-23T00:19:52.552Z,1014.82
2017-08-23T00:20:52.575Z,1014.8
2017-08-23T00:21:52.593Z,1014.82
2017-08-23T00:22:52.618Z,1014.77
2017-08-23T00:23:52.635Z,1014.76
2017-08-23T00:25:52.683Z,1014.79
2017-08-23T00:26:52.703Z,1014.75
2017-08-23T00:27:52.729Z,1014.78
2017-08-23T00:28:52.746Z,1014.71
2017-08-23T00:29:52.774Z,1014.76
2017-08-23T00:30:52.792Z,1014.71
2017-08-23T00:31:52.816Z,1014.72
2017-08-23T00:32:52.833Z,1014.74
2017-08-23T00:33:52.855Z,1014.73
2017-08-23T00:34:52.880Z,1014.71
2017-08-23T00:35:52.903Z,1014.74
2017-08-23T00:36:52.923Z,1014.69
2017-08-23T00:37:52.942Z,1014.67
2017-08-23T00:38:52.967Z,1014.66
2017-08-23T00:39:52.987Z,1014.67
2017-08-23T00:41:53.031Z,1014.69
2017-08-23T00:42:53.048Z,1014.72
2017-08-23T00:43:53.075Z,1014.71
2017-08-23T00:44:53.096Z,1014.69
2017-08-23T00:45:53.112Z,1014.73
2017-08-23T00:46:53.137Z,1014.73
2017-08-23T00:47:53.160Z,1014.7
2017-08-23T00:48:53.178Z,1014.74
2017-08-23T00:49:53.204Z,1014.69
2017-08-23T00:50:53.225Z,1014.7
2017-08-23T00:51:53.245Z,1014.71
2017-08-23T00:52:53.268Z,1014.67
2017-08-23T00:53:53.290Z,1014.66
2017-08-23T00:54:53.311Z,1014.72
2017-08-23T00:55:53.332Z,1014.66
2017-08-23T00:57:53.372Z,1014.67
2017-08-23T00:58:53.399Z,1014.69
2017-08-23T00:59:53.416Z,1014.7
2017-08-23T01:00:53.438Z,1014.68
2017-08-23T01:01:53.462Z,1014.7
2017-08-23T01:02:53.484Z,1014.71
2017-08-23T01:03:53.501Z,1014.71
2017-08-23T01:04:53.526Z,1014.73
2017-08-23T01:05:53.547Z,1014.72
2017-08-23T01:06:53.569Z,1014.68
2017-08-23T01:07:53.590Z,1014.71
2017-08-23T01:08:53.610Z,1014.68
2017-08-23T01:09:53.636Z,1014.78
2017-08-23T01:10:53.653Z,1014.71
2017-08-23T01:11:53.677Z,1014.72
2017-08-23T01:13:53.722Z,1014.7
2017-08-23T01:14:53.739Z,1014.73
2017-08-23T01:15:53.770Z,1014.74
2017-08-23T01:16:53.781Z,1014.75
2017-08-23T01:17:53.806Z,1014.71
2017-08-23T01:18:53.827Z,1014.74
2017-08-23T01:19:53.849Z,1014.75
2017-08-23T01:20:53.870Z,1014.76
2017-08-23T01:21:53.892Z,1014.74
2017-08-23T01:22:53.913Z,1014.69
2017-08-23T01:23:53.937Z,1014.71
2017-08-23T01:24:53.956Z,1014.67
2017-08-23T01:25:54.378Z,1014.65
2017-08-23T01:26:53.999Z,1014.68
2017-08-23T01:28:54.041Z,1014.68
2017-08-23T01:29:54.064Z,1014.68
2017-08-23T01:30:54.083Z,1014.64
2017-08-23T01:31:54.111Z,1014.67
2017-08-23T01:32:54.126Z,1014.63
2017-08-23T01:33:54.202Z,1014.64
2017-08-23T01:34:54.171Z,1014.61
2017-08-23T01:35:54.194Z,1014.6
2017-08-23T01:36:54.213Z,1014.64
2017-08-23T01:37:54.237Z,1014.64
2017-08-23T01:38:54.307Z,1014.61
2017-08-23T01:39:54.281Z,1014.66
2017-08-23T01:40:54.296Z,1014.66
2017-08-23T01:41:54.319Z,1014.66
2017-08-23T01:42:54.350Z,1014.64
2017-08-23T01:43:54.367Z,1014.69
2017-08-23T01:44:54.387Z,1014.66
2017-08-23T01:45:54.406Z,1014.65
2017-08-23T01:46:54.726Z,1014.66
2017-08-23T01:47:54.450Z,1014.69
2017-08-23T01:48:54.473Z,1014.64
2017-08-23T01:49:54.492Z,1014.64
2017-08-23T01:50:54.511Z,1014.68
2017-08-23T01:51:54.531Z,1014.7
2017-08-23T01:52:54.556Z,1014.71
2017-08-23T01:53:54.579Z,1014.68
2017-08-23T01:54:54.600Z,1014.68
2017-08-23T01:55:54.619Z,1014.69
2017-08-23T01:56:54.641Z,1014.68
2017-08-23T01:57:54.664Z,1014.65
2017-08-23T01:58:54.682Z,1014.63
2017-08-23T02:00:54.727Z,1014.63
2017-08-23T02:01:54.746Z,1014.65
2017-08-23T02:02:54.765Z,1014.67
2017-08-23T02:03:54.790Z,1014.64
2017-08-23T02:04:54.813Z,1014.67
2017-08-23T02:05:54.834Z,1014.66
2017-08-23T02:06:54.857Z,1014.67
2017-08-23T02:07:54.875Z,1014.66
2017-08-23T02:08:54.898Z,1014.63
2017-08-23T02:09:54.918Z,1014.65
2017-08-23T02:10:54.942Z,1014.63
2017-08-23T02:11:54.963Z,1014.61
2017-08-23T02:12:54.982Z,1014.58
2017-08-23T02:13:55.004Z,1014.62
2017-08-23T02:14:55.022Z,1014.66
2017-08-23T02:16:55.064Z,1014.7
2017-08-23T02:17:55.090Z,1014.69
2017-08-23T02:18:55.107Z,1014.67
2017-08-23T02:19:55.130Z,1014.69
2017-08-23T02:20:55.155Z,1014.68
2017-08-23T02:21:55.168Z,1014.69
2017-08-23T02:22:55.199Z,1014.68
2017-08-23T02:23:55.268Z,1014.63
2017-08-23T02:24:55.236Z,1014.61
2017-08-23T02:25:55.258Z,1014.61
2017-08-23T02:26:55.282Z,1014.64
2017-08-23T02:27:55.303Z,1014.65
2017-08-23T02:28:55.319Z,1014.61
2017-08-23T02:29:55.341Z,1014.64
2017-08-23T02:30:55.365Z,1014.62
2017-08-23T02:32:55.403Z,1014.63
2017-08-23T02:33:55.428Z,1014.61
2017-08-23T02:34:55.449Z,1014.61
2017-08-23T02:35:55.470Z,1014.63
2017-08-23T02:36:55.490Z,1014.58
2017-08-23T02:37:55.512Z,1014.59
2017-08-23T02:38:55.533Z,1014.59
2017-08-23T02:39:55.556Z,1014.61
2017-08-23T02:40:55.573Z,1014.58
2017-08-23T02:41:55.598Z,1014.62
2017-08-23T02:42:55.620Z,1014.63
2017-08-23T02:43:55.641Z,1014.62
2017-08-23T02:44:55.663Z,1014.67
2017-08-23T02:45:55.684Z,1014.65
2017-08-23T02:46:55.703Z,1014.66
2017-08-23T02:48:55.749Z,1014.67
2017-08-23T02:49:56.066Z,1014.72
2017-08-23T02:50:55.790Z,1014.72
2017-08-23T02:51:55.806Z,1014.7
2017-08-23T02:52:55.833Z,1014.73
2017-08-23T02:53:55.850Z,1014.74
2017-08-23T02:54:55.869Z,1014.71
2017-08-23T02:55:55.895Z,1014.69
2017-08-23T02:56:55.912Z,1014.72
2017-08-23T02:57:55.932Z,1014.71
2017-08-23T02:58:55.957Z,1014.66
2017-08-23T02:59:55.973Z,1014.65
2017-08-23T03:00:55.997Z,1014.61
2017-08-23T03:01:56.020Z,1014.6
2017-08-23T03:03:56.085Z,1014.62
2017-08-23T03:04:56.083Z,1014.62
2017-08-23T03:05:56.103Z,1014.58
2017-08-23T03:06:56.125Z,1014.62
2017-08-23T03:07:56.144Z,1014.59
2017-08-23T03:08:56.168Z,1014.62
2017-08-23T03:09:56.187Z,1014.61
2017-08-23T03:10:56.212Z,1014.57
2017-08-23T03:11:56.231Z,1014.56
2017-08-23T03:12:56.252Z,1014.57
2017-08-23T03:13:56.273Z,1014.53
2017-08-23T03:14:56.295Z,1014.56
2017-08-23T03:15:56.316Z,1014.58
2017-08-23T03:16:56.337Z,1014.57
2017-08-23T03:17:56.358Z,1014.59
2017-08-23T03:18:56.379Z,1014.61
2017-08-23T03:19:56.400Z,1014.6
2017-08-23T03:20:56.421Z,1014.6
2017-08-23T03:21:56.442Z,1014.58
2017-08-23T03:22:56.463Z,1014.59
2017-08-23T03:23:56.483Z,1014.6
2017-08-23T03:24:56.507Z,1014.63
2017-08-23T03:25:56.528Z,1014.65
2017-08-23T03:26:56.547Z,1014.62
2017-08-23T03:27:56.567Z,1014.65
2017-08-23T03:28:56.591Z,1014.6
2017-08-23T03:29:56.611Z,1014.66
2017-08-23T03:30:56.634Z,1014.65
2017-08-23T03:31:56.657Z,1014.63
2017-08-23T03:32:56.673Z,1014.66
2017-08-23T03:33:56.694Z,1014.64
2017-08-23T03:35:56.738Z,1014.67
2017-08-23T03:36:56.761Z,1014.7
2017-08-23T03:37:56.779Z,1014.69
2017-08-23T03:38:56.800Z,1014.71
2017-08-23T03:39:56.821Z,1014.73
2017-08-23T03:40:56.844Z,1014.69
2017-08-23T03:41:56.865Z,1014.7
2017-08-23T03:42:56.890Z,1014.77
2017-08-23T03:43:56.907Z,1014.78
2017-08-23T03:44:56.930Z,1014.78
2017-08-23T03:45:56.951Z,1014.82
2017-08-23T03:46:56.970Z,1014.78
2017-08-23T03:47:56.994Z,1014.8
2017-08-23T03:48:57.014Z,1014.8
2017-08-23T03:49:57.038Z,1014.8
2017-08-23T03:51:57.077Z,1014.84
2017-08-23T03:52:57.146Z,1014.81
2017-08-23T03:53:57.120Z,1014.87
2017-08-23T03:54:57.144Z,1014.85
2017-08-23T03:55:57.160Z,1014.83
2017-08-23T03:56:57.181Z,1014.84
2017-08-23T03:57:57.205Z,1014.82
2017-08-23T03:58:57.225Z,1014.83
2017-08-23T03:59:57.243Z,1014.86
2017-08-23T04:00:57.264Z,1014.85
2017-08-23T04:01:57.292Z,1014.87
2017-08-23T04:02:57.310Z,1014.86
2017-08-23T04:03:57.328Z,1014.85
2017-08-23T04:04:57.354Z,1014.86
2017-08-23T04:05:57.374Z,1014.81
2017-08-23T04:07:57.415Z,1014.84
2017-08-23T04:08:57.437Z,1014.85
2017-08-23T04:09:57.459Z,1014.86
2017-08-23T04:10:57.478Z,1014.86
2017-08-23T04:11:57.498Z,1014.86
2017-08-23T04:12:57.520Z,1014.91
2017-08-23T04:13:57.543Z,1014.88
2017-08-23T04:14:57.563Z,1014.87
2017-08-23T04:15:57.588Z,1014.88
2017-08-23T04:16:57.606Z,1014.86
2017-08-23T04:17:57.631Z,1014.9
2017-08-23T04:18:57.650Z,1014.88
2017-08-23T04:19:57.668Z,1014.91
2017-08-23T04:20:57.690Z,1014.94
2017-08-23T04:21:57.715Z,1014.91
2017-08-23T04:23:57.756Z,1014.91
2017-08-23T04:24:57.776Z,1014.89
2017-08-23T04:25:57.800Z,1014.94
2017-08-23T04:26:57.818Z,1014.91
2017-08-23T04:27:57.844Z,1014.95
2017-08-23T04:28:57.859Z,1014.94
2017-08-23T04:29:57.884Z,1014.94
2017-08-23T04:30:57.910Z,1014.92
2017-08-23T04:31:57.929Z,1014.91
2017-08-23T04:32:57.952Z,1014.86
2017-08-23T04:33:57.971Z,1014.9
2017-08-23T04:34:57.994Z,1014.92
2017-08-23T04:35:58.011Z,1014.92
2017-08-23T04:36:58.037Z,1014.89
2017-08-23T04:38:58.081Z,1014.96
2017-08-23T04:39:58.102Z,1014.96
2017-08-23T04:40:58.125Z,1014.97
2017-08-23T04:41:58.148Z,1015
2017-08-23T04:42:58.164Z,1015
2017-08-23T04:43:58.190Z,1014.96
2017-08-23T04:44:58.207Z,1014.99
2017-08-23T04:45:58.232Z,1014.97
2017-08-23T04:46:58.253Z,1014.99
2017-08-23T04:47:58.275Z,1014.99
2017-08-23T04:48:58.300Z,1014.92
2017-08-23T04:49:58.323Z,1014.96
2017-08-23T04:50:58.339Z,1014.98
2017-08-23T04:51:58.363Z,1014.93
2017-08-23T04:52:58.385Z,1014.97
2017-08-23T04:53:58.459Z,1014.97
2017-08-23T04:54:58.425Z,1014.94
2017-08-23T04:55:58.450Z,1014.92
2017-08-23T04:56:58.475Z,1014.93
2017-08-23T04:57:58.493Z,1014.92
2017-08-23T04:58:58.520Z,1014.98
2017-08-23T04:59:58.537Z,1014.96
2017-08-23T05:00:58.563Z,1014.96
2017-08-23T05:01:58.583Z,1014.96
2017-08-23T05:02:58.606Z,1015.01
2017-08-23T05:03:58.629Z,1015.04
2017-08-23T05:04:58.649Z,1015.05
2017-08-23T05:05:58.676Z,1015.1
2017-08-23T05:06:58.694Z,1015.08
2017-08-23T05:07:58.720Z,1015.1
2017-08-23T05:08:58.740Z,1015.09
2017-08-23T05:10:58.788Z,1015.06
2017-08-23T05:11:58.814Z,1015.1
2017-08-23T05:12:58.831Z,1015.16
2017-08-23T05:13:58.858Z,1015.16
2017-08-23T05:14:58.933Z,1015.12
2017-08-23T05:15:58.904Z,1015.13
2017-08-23T05:16:58.923Z,1015.09
2017-08-23T05:17:58.951Z,1015.12
2017-08-23T05:18:58.976Z,1015.1
2017-08-23T05:19:58.997Z,1015.08
2017-08-23T05:20:59.019Z,1015.06
2017-08-23T05:21:59.043Z,1015.09
2017-08-23T05:22:59.067Z,1015.11
2017-08-23T05:23:59.086Z,1015.09
2017-08-23T05:24:59.111Z,1015.06
2017-08-23T05:26:59.160Z,1015.04
2017-08-23T05:27:59.182Z,1015.03
2017-08-23T05:28:59.201Z,1015.06
2017-08-23T05:29:59.233Z,1015.06
2017-08-23T05:30:59.247Z,1015.06
2017-08-23T05:31:59.273Z,1015.04
2017-08-23T05:32:59.297Z,1015.04
2017-08-23T05:33:59.320Z,1015.09
2017-08-23T05:34:59.343Z,1015.21
2017-08-23T05:35:59.364Z,1015.13
2017-08-23T05:36:59.386Z,1015.14
2017-08-23T05:37:59.411Z,1015.07
2017-08-23T05:38:59.436Z,1015.02
2017-08-23T05:39:59.459Z,1015.04
2017-08-23T05:40:59.484Z,1015.08
2017-08-23T05:42:59.529Z,1015.06
2017-08-23T05:43:59.554Z,1015.1
2017-08-23T05:44:59.574Z,1015.1
2017-08-23T05:45:59.600Z,1015.09
2017-08-23T05:46:59.623Z,1015.16
2017-08-23T05:47:59.649Z,1015.18
2017-08-23T05:48:59.668Z,1015.17
2017-08-23T05:49:59.694Z,1015.17
2017-08-23T05:50:59.719Z,1015.18
2017-08-23T05:51:59.741Z,1015.15
2017-08-23T05:52:59.764Z,1015.14
2017-08-23T05:53:59.787Z,1015.17
2017-08-23T05:54:59.810Z,1015.13
2017-08-23T05:55:59.834Z,1015.13
2017-08-23T05:56:59.859Z,1015.1
2017-08-23T05:58:59.906Z,1015.08
2017-08-23T05:59:59.928Z,1015.07
2017-08-23T06:00:59.953Z,1015.06
2017-08-23T06:01:59.973Z,1015.11
2017-08-23T06:02:59.996Z,1015.11
2017-08-23T06:04:00.022Z,1015.12
2017-08-23T06:05:00.043Z,1015.09
2017-08-23T06:06:00.071Z,1015.11
2017-08-23T06:07:00.092Z,1015.1
2017-08-23T06:08:00.116Z,1015.07
2017-08-23T06:09:00.140Z,1015.11
2017-08-23T06:10:00.160Z,1015.1
2017-08-23T06:11:00.187Z,1015.11
2017-08-23T06:12:00.231Z,1015.1
2017-08-23T06:14:00.259Z,1015.14
2017-08-23T06:15:00.279Z,1015.24
2017-08-23T06:16:00.306Z,1015.28
2017-08-23T06:17:00.330Z,1015.71
2017-08-23T06:18:00.357Z,1016.23
2017-08-23T06:19:00.378Z,1016.28
2017-08-23T06:20:00.402Z,1015.98
2017-08-23T06:21:00.430Z,1015.75
2017-08-23T06:22:00.449Z,1016.28
2017-08-23T06:23:00.477Z,1015.8
2017-08-23T06:24:00.502Z,1015.8
2017-08-23T06:25:00.526Z,1015.67
2017-08-23T06:26:00.553Z,1016.29
2017-08-23T06:27:00.577Z,1016.32
2017-08-23T06:28:00.606Z,1015.82
2017-08-23T06:29:00.635Z,1016.46
2017-08-23T06:30:00.662Z,1016.5
2017-08-23T06:31:00.683Z,1016.48
2017-08-23T06:32:00.716Z,1016.42
2017-08-23T06:33:00.742Z,1016.31
2017-08-23T06:34:00.773Z,1016.45
2017-08-23T06:35:00.798Z,1016.35
2017-08-23T06:36:00.825Z,1015.39
2017-08-23T06:37:00.858Z,1015.46
2017-08-23T06:38:00.883Z,1015.37
2017-08-23T06:39:00.913Z,1015.39
2017-08-23T06:40:00.940Z,1015.74
2017-08-23T06:41:00.971Z,1016.35
2017-08-23T06:42:01.001Z,1015.81
2017-08-23T06:43:01.028Z,1016.39
2017-08-23T06:44:01.052Z,1015.54
2017-08-23T06:46:01.114Z,1016.33
2017-08-23T06:47:01.143Z,1015.44
2017-08-23T06:48:01.176Z,1015.41
2017-08-23T06:49:01.205Z,1016.25
2017-08-23T06:50:01.234Z,1015.43
2017-08-23T06:51:01.260Z,1015.48
2017-08-23T06:52:01.293Z,1016.35
2017-08-23T06:53:01.321Z,1015.45
2017-08-23T06:54:01.352Z,1015.44
2017-08-23T06:55:01.379Z,1015.42
2017-08-23T06:56:01.411Z,1015.65
2017-08-23T06:57:01.438Z,1015.4
2017-08-23T06:58:01.465Z,1015.4
2017-08-23T06:59:01.499Z,1015.44
2017-08-23T07:00:01.522Z,1015.4
2017-08-23T07:02:01.585Z,1015.34
2017-08-23T07:03:01.610Z,1015.31
2017-08-23T07:04:01.640Z,1015.27
2017-08-23T07:05:01.670Z,1015.36
2017-08-23T07:06:01.699Z,1015.36
2017-08-23T07:07:01.724Z,1015.26
2017-08-23T07:08:01.758Z,1015.26
2017-08-23T07:09:01.783Z,1015.31
2017-08-23T07:10:01.814Z,1015.26
2017-08-23T07:11:01.841Z,1015.26
2017-08-23T07:12:01.868Z,1015.26
2017-08-23T07:13:01.898Z,1015.23
2017-08-23T07:14:01.923Z,1015.25
2017-08-23T07:15:01.947Z,1015.27
2017-08-23T07:16:01.978Z,1015.27
2017-08-23T07:18:02.031Z,1015.32
2017-08-23T07:19:02.061Z,1015.31
2017-08-23T07:20:02.091Z,1015.31
2017-08-23T07:21:02.116Z,1015.51
2017-08-23T07:22:02.145Z,1015.33
2017-08-23T07:23:02.176Z,1015.36
2017-08-23T07:24:02.195Z,1015.35
2017-08-23T07:25:02.224Z,1015.36
2017-08-23T07:26:02.253Z,1015.8
2017-08-23T07:27:02.282Z,1015.38
2017-08-23T07:28:02.305Z,1015.47
2017-08-23T07:29:02.337Z,1015.39
2017-08-23T07:30:02.365Z,1015.38
2017-08-23T07:31:02.389Z,1015.55
2017-08-23T07:32:02.423Z,1015.98
2017-08-23T07:34:02.477Z,1016
2017-08-23T07:35:02.502Z,1015.98
2017-08-23T07:36:02.537Z,1015.93
2017-08-23T07:37:02.560Z,1015.9
2017-08-23T07:38:02.599Z,1015.92
2017-08-23T07:39:02.618Z,1015.9
2017-08-23T07:40:02.653Z,1015.92
2017-08-23T07:41:02.681Z,1015.89
2017-08-23T07:42:02.713Z,1015.9
2017-08-23T07:43:02.741Z,1015.92
2017-08-23T07:44:02.777Z,1015.87
2017-08-23T07:45:02.814Z,1015.79
2017-08-23T07:46:02.837Z,1015.85
2017-08-23T07:47:02.871Z,1015.86
2017-08-23T07:49:02.936Z,1015.91
2017-08-23T07:50:02.966Z,1015.86
2017-08-23T07:51:02.997Z,1015.84
2017-08-23T07:52:03.030Z,1015.81
2017-08-23T07:53:03.069Z,1015.82
2017-08-23T07:54:03.097Z,1015.83
2017-08-23T07:55:03.127Z,1015.82
2017-08-23T07:56:03.162Z,1015.8
2017-08-23T07:57:03.196Z,1015.8
2017-08-23T07:58:03.230Z,1015.78
2017-08-23T07:59:03.287Z,1015.77
2017-08-23T08:00:03.296Z,1015.74
2017-08-23T08:01:03.328Z,1015.7
2017-08-23T08:02:03.363Z,1015.67
2017-08-23T08:03:03.397Z,1015.62
2017-08-23T08:04:03.431Z,1015.61
2017-08-23T08:05:03.463Z,1015.64
2017-08-23T08:06:03.497Z,1015.59
2017-08-23T08:07:03.530Z,1015.61
2017-08-23T08:08:03.564Z,1015.59
2017-08-23T08:09:03.608Z,1015.6
2017-08-23T08:10:03.635Z,1015.64
2017-08-23T08:11:03.670Z,1015.65
2017-08-23T08:12:03.700Z,1015.69
2017-08-23T08:13:03.733Z,1015.67
2017-08-23T08:14:03.766Z,1015.71
2017-08-23T08:15:03.805Z,1015.64
2017-08-23T08:16:03.845Z,1015.65
2017-08-23T08:17:03.870Z,1015.61
2017-08-23T08:18:03.904Z,1015.61
2017-08-23T08:19:03.936Z,1015.63
2017-08-23T08:21:04.001Z,1015.61
2017-08-23T08:22:04.039Z,1015.65
2017-08-23T08:23:04.071Z,1015.75
2017-08-23T08:24:04.106Z,1015.78
2017-08-23T08:25:04.138Z,1015.74
2017-08-23T08:26:04.175Z,1015.81
2017-08-23T08:27:04.211Z,1015.78
2017-08-23T08:28:04.235Z,1015.75
2017-08-23T08:29:04.272Z,1015.68
2017-08-23T08:30:04.305Z,1015.67
2017-08-23T08:31:04.341Z,1015.64
2017-08-23T08:32:04.375Z,1015.62
2017-08-23T08:33:04.405Z,1015.67
2017-08-23T08:34:04.441Z,1015.64
2017-08-23T08:35:04.470Z,1015.63
2017-08-23T08:37:04.538Z,1015.6
2017-08-23T08:38:04.573Z,1015.63
2017-08-23T08:39:04.607Z,1015.62
2017-08-23T08:40:04.642Z,1015.59
2017-08-23T08:41:04.675Z,1015.53
2017-08-23T08:42:04.704Z,1015.42
2017-08-23T08:43:04.742Z,1015.34
2017-08-23T08:44:04.772Z,1015.39
2017-08-23T08:45:04.806Z,1015.4
2017-08-23T08:46:04.840Z,1015.33
2017-08-23T08:47:04.875Z,1015.38
2017-08-23T08:48:04.907Z,1015.34
2017-08-23T08:49:04.942Z,1015.31
2017-08-23T08:50:04.973Z,1015.34
2017-08-23T08:51:05.006Z,1015.36
2017-08-23T08:53:05.073Z,1015.41
2017-08-23T08:54:05.106Z,1015.38
2017-08-23T08:55:05.140Z,1015.34
2017-08-23T08:56:05.170Z,1015.33
2017-08-23T08:57:05.204Z,1015.32
2017-08-23T08:58:05.235Z,1015.37
2017-08-23T08:59:05.272Z,1015.32
2017-08-23T09:00:05.308Z,1015.26
2017-08-23T09:01:05.337Z,1015.27
2017-08-23T09:02:05.420Z,1015.32
2017-08-23T09:03:05.399Z,1015.29
2017-08-23T09:04:05.437Z,1015.38
2017-08-23T09:05:05.465Z,1015.36
2017-08-23T09:06:05.503Z,1015.34
2017-08-23T09:07:05.528Z,1015.33
2017-08-23T09:09:05.596Z,1015.34
2017-08-23T09:10:05.628Z,1015.33
2017-08-23T09:11:05.657Z,1015.33
2017-08-23T09:12:05.692Z,1015.35
2017-08-23T09:13:05.721Z,1015.28
2017-08-23T09:14:05.755Z,1015.25
2017-08-23T09:15:05.788Z,1015.31
2017-08-23T09:16:05.821Z,1015.28
2017-08-23T09:17:05.850Z,1015.33
2017-08-23T09:18:05.884Z,1015.33
2017-08-23T09:19:05.917Z,1015.29
2017-08-23T09:20:05.949Z,1015.31
2017-08-23T09:21:05.982Z,1015.35
2017-08-23T09:22:06.015Z,1015.29
2017-08-23T09:24:06.079Z,1015.26
2017-08-23T09:25:06.109Z,1015.28
2017-08-23T09:26:06.136Z,1015.31
2017-08-23T09:27:06.173Z,1015.28
2017-08-23T09:28:06.202Z,1015.25
2017-08-23T09:29:06.236Z,1015.25
2017-08-23T09:30:06.265Z,1015.25
2017-08-23T09:31:06.301Z,1015.27
2017-08-23T09:32:06.332Z,1015.24
2017-08-23T09:33:06.364Z,1015.27
2017-08-23T09:34:06.397Z,1015.29
2017-08-23T09:35:06.429Z,1015.27
2017-08-23T09:36:06.457Z,1015.21
2017-08-23T09:37:06.489Z,1015.21
2017-08-23T09:38:06.523Z,1015.25
2017-08-23T09:39:06.555Z,1015.24
2017-08-23T09:40:06.586Z,1015.29
2017-08-23T09:41:06.618Z,1015.31
2017-08-23T09:42:06.649Z,1015.29
2017-08-23T09:43:06.680Z,1015.3
2017-08-23T09:44:06.712Z,1015.24
2017-08-23T09:45:06.743Z,1015.31
2017-08-23T09:46:06.775Z,1015.24
2017-08-23T09:47:06.804Z,1015.28
2017-08-23T09:48:06.836Z,1015.28
2017-08-23T09:49:06.865Z,1015.3
2017-08-23T09:50:06.905Z,1015.31
2017-08-23T09:51:06.927Z,1015.34
2017-08-23T09:52:06.960Z,1015.32
2017-08-23T09:53:06.992Z,1015.33
2017-08-23T09:54:07.020Z,1015.31
2017-08-23T09:56:07.084Z,1015.26
2017-08-23T09:57:07.113Z,1015.23
2017-08-23T09:58:07.145Z,1015.29
2017-08-23T09:59:07.176Z,1015.3
2017-08-23T10:00:07.209Z,1015.28
2017-08-23T10:01:07.237Z,1015.3
2017-08-23T10:02:07.270Z,1015.25
2017-08-23T10:03:07.303Z,1015.24
2017-08-23T10:04:07.331Z,1015.25
2017-08-23T10:05:07.361Z,1015.26
2017-08-23T10:06:07.389Z,1015.28
2017-08-23T10:07:07.423Z,1015.24
2017-08-23T10:08:07.456Z,1015.28
2017-08-23T10:09:07.484Z,1015.29
2017-08-23T10:10:07.516Z,1015.29
2017-08-23T10:12:07.589Z,1015.27
2017-08-23T10:13:07.607Z,1015.24
2017-08-23T10:14:07.640Z,1015.24
2017-08-23T10:15:07.665Z,1015.23
2017-08-23T10:16:07.697Z,1015.26
2017-08-23T10:17:07.728Z,1015.25
2017-08-23T10:18:07.757Z,1015.24
2017-08-23T10:19:07.787Z,1015.24
2017-08-23T10:20:07.821Z,1015.18
2017-08-23T10:21:07.846Z,1015.22
2017-08-23T10:22:07.886Z,1015.22
2017-08-23T10:23:07.913Z,1015.29
2017-08-23T10:24:07.939Z,1015.27
2017-08-23T10:25:07.974Z,1015.23
2017-08-23T10:26:08.005Z,1015.2
2017-08-23T10:28:08.066Z,1015.17
2017-08-23T10:29:08.098Z,1015.13
2017-08-23T10:30:08.127Z,1015.19
2017-08-23T10:31:08.159Z,1015.18
2017-08-23T10:32:08.188Z,1015.16
2017-08-23T10:33:08.224Z,1015.17
2017-08-23T10:34:08.254Z,1015.19
2017-08-23T10:35:08.283Z,1015.17
2017-08-23T10:36:08.318Z,1015.16
2017-08-23T10:37:08.345Z,1015.16
2017-08-23T10:38:08.426Z,1015.12
2017-08-23T10:39:08.406Z,1015.13
2017-08-23T10:40:08.437Z,1015.13
2017-08-23T10:41:08.468Z,1015.12
2017-08-23T10:42:08.498Z,1015.09
2017-08-23T10:44:08.558Z,1015.04
2017-08-23T10:45:08.591Z,1015.02
2017-08-23T10:46:08.618Z,1015.01
2017-08-23T10:47:08.653Z,1014.97
2017-08-23T10:48:08.932Z,1014.98
2017-08-23T10:49:08.708Z,1015
2017-08-23T10:50:08.741Z,1014.96
2017-08-23T10:51:08.772Z,1014.9
2017-08-23T10:52:08.804Z,1014.9
2017-08-23T10:53:08.832Z,1014.94
2017-08-23T10:54:08.861Z,1014.9
2017-08-23T10:55:08.893Z,1014.91
2017-08-23T10:56:08.919Z,1014.9
2017-08-23T10:57:08.953Z,1014.87
2017-08-23T10:59:09.011Z,1014.88
2017-08-23T11:00:09.043Z,1014.85
2017-08-23T11:01:09.071Z,1014.85
2017-08-23T11:02:09.099Z,1014.82
2017-08-23T11:03:09.130Z,1014.84
2017-08-23T11:04:09.160Z,1014.84
2017-08-23T11:05:09.193Z,1014.78
2017-08-23T11:06:09.221Z,1014.79
2017-08-23T11:07:09.248Z,1014.76
2017-08-23T11:08:09.279Z,1014.74
2017-08-23T11:09:09.310Z,1014.82
2017-08-23T11:10:09.336Z,1014.79
2017-08-23T11:11:09.367Z,1014.78
2017-08-23T11:12:09.406Z,1014.75
2017-08-23T11:13:09.423Z,1014.73
2017-08-23T11:14:09.455Z,1014.71
2017-08-23T11:15:09.484Z,1014.76
2017-08-23T11:16:09.509Z,1014.75
2017-08-23T11:17:09.545Z,1014.71
2017-08-23T11:18:09.572Z,1014.75
2017-08-23T11:19:09.599Z,1014.76
2017-08-23T11:20:09.627Z,1014.74
2017-08-23T11:21:09.659Z,1014.72
2017-08-23T11:22:09.687Z,1014.74
2017-08-23T11:23:09.719Z,1014.74
2017-08-23T11:24:09.745Z,1014.72
2017-08-23T11:25:09.772Z,1014.69
2017-08-23T11:26:09.806Z,1014.72
2017-08-23T11:27:09.831Z,1014.72
2017-08-23T11:28:09.859Z,1014.69
2017-08-23T11:29:09.889Z,1014.7
2017-08-23T11:31:09.948Z,1014.7
2017-08-23T11:32:09.973Z,1014.71
2017-08-23T11:33:10.004Z,1014.71
2017-08-23T11:34:10.030Z,1014.66
2017-08-23T11:35:10.058Z,1014.69
2017-08-23T11:36:10.087Z,1014.68
2017-08-23T11:37:10.115Z,1014.7
2017-08-23T11:38:10.146Z,1014.66
2017-08-23T11:39:10.172Z,1014.66
2017-08-23T11:40:10.201Z,1014.67
2017-08-23T11:41:10.230Z,1014.66
2017-08-23T11:42:10.257Z,1014.63
2017-08-23T11:43:10.295Z,1014.6
2017-08-23T11:44:10.314Z,1014.59
2017-08-23T11:45:10.342Z,1014.6
2017-08-23T11:47:10.399Z,1014.56
2017-08-23T11:48:10.428Z,1014.55
2017-08-23T11:49:10.453Z,1014.57
2017-08-23T11:50:10.480Z,1014.55
2017-08-23T11:51:10.509Z,1014.53
2017-08-23T11:52:10.539Z,1014.55
2017-08-23T11:53:10.564Z,1014.56
2017-08-23T11:54:10.593Z,1014.56
2017-08-23T11:55:10.622Z,1014.57
2017-08-23T11:56:10.648Z,1014.57
2017-08-23T11:57:10.679Z,1014.57
2017-08-23T11:58:10.702Z,1014.55
2017-08-23T11:59:10.734Z,1014.55
2017-08-23T12:00:10.764Z,1014.57
2017-08-23T12:01:10.793Z,1014.57
2017-08-23T12:03:10.845Z,1014.51
2017-08-23T12:04:10.874Z,1014.59
2017-08-23T12:05:10.905Z,1014.56
2017-08-23T12:06:10.932Z,1014.57
2017-08-23T12:07:10.959Z,1014.56
2017-08-23T12:08:10.985Z,1014.57
2017-08-23T12:09:11.017Z,1014.59
2017-08-23T12:10:11.041Z,1014.58
2017-08-23T12:11:11.074Z,1014.54
2017-08-23T12:12:11.100Z,1014.53
2017-08-23T12:13:11.128Z,1014.57
2017-08-23T12:14:11.155Z,1014.53
2017-08-23T12:15:11.185Z,1014.5
2017-08-23T12:16:11.213Z,1014.53
2017-08-23T12:17:11.290Z,1014.51
2017-08-23T12:19:11.299Z,1014.54
2017-08-23T12:20:11.325Z,1014.47
2017-08-23T12:21:11.347Z,1014.45
2017-08-23T12:22:11.386Z,1014.49
2017-08-23T12:23:11.406Z,1014.46
2017-08-23T12:24:11.436Z,1014.45
2017-08-23T12:25:11.466Z,1014.46
2017-08-23T12:26:11.492Z,1014.45
2017-08-23T12:27:11.523Z,1014.43
2017-08-23T12:28:11.546Z,1014.45
2017-08-23T12:29:11.576Z,1014.49
2017-08-23T12:30:11.602Z,1014.42
2017-08-23T12:31:11.631Z,1014.44
2017-08-23T12:32:11.663Z,1014.4
2017-08-23T12:34:11.720Z,1014.41
2017-08-23T12:35:11.745Z,1014.42
2017-08-23T12:36:11.769Z,1014.39
2017-08-23T12:37:11.801Z,1014.36
2017-08-23T12:38:11.826Z,1014.32
2017-08-23T12:39:11.856Z,1014.34
2017-08-23T12:40:11.880Z,1014.29
2017-08-23T12:41:11.910Z,1014.3
2017-08-23T12:42:11.938Z,1014.3
2017-08-23T12:43:11.966Z,1014.31
2017-08-23T12:44:11.994Z,1014.3
2017-08-23T12:45:12.021Z,1014.29
2017-08-23T12:46:12.048Z,1014.29
2017-08-23T12:47:12.098Z,1014.28
2017-08-23T12:48:12.106Z,1014.26
2017-08-23T12:49:12.133Z,1014.21